TimePST,TemperatureF,Dew PointF,Humidity,Sea Level PressureIn,VisibilityMPH,Wind Direction,Wind SpeedMPH,Gust SpeedMPH,PrecipitationIn,Events,Conditions,WindDirDegrees,DateUTC
12:53 AM,55.0,46.9,74,30.18,10.0,Calm,Calm,-,N/A,,Overcast,0,2012-12-23 08:53:00
1:35 AM,55.4,46.4,72,30.19,10.0,Calm,Calm,-,N/A,,Overcast,0,2012-12-23 09:35:00
1:53 AM,55.0,46.0,72,30.20,10.0,Calm,Calm,-,N/A,,Overcast,0,2012-12-23 09:53:00
2:42 AM,55.4,46.4,72,30.19,10.0,NE,3.5,-,N/A,,Overcast,40,2012-12-23 10:42:00
2:53 AM,55.0,46.0,72,30.19,10.0,Calm,Calm,-,N/A,,Overcast,0,2012-12-23 10:53:00
3:53 AM,54.0,46.9,77,30.18,10.0,SSE,3.5,-,N/A,,Overcast,160,2012-12-23 11:53:00
4:16 AM,53.6,46.4,77,30.17,5.0,Calm,Calm,-,N/A,,Haze,0,2012-12-23 12:16:00
4:53 AM,54.0,48.0,80,30.18,5.0,Calm,Calm,-,N/A,,Haze,0,2012-12-23 12:53:00
5:14 AM,53.6,50.0,88,30.18,8.0,East,3.5,-,N/A,,Overcast,90,2012-12-23 13:14:00
5:29 AM,53.6,50.0,88,30.18,10.0,East,3.5,-,N/A,,Overcast,100,2012-12-23 13:29:00
5:53 AM,53.1,48.9,86,30.18,6.0,East,5.8,-,0.00,Rain,Light Rain,100,2012-12-23 13:53:00
6:53 AM,53.1,48.0,83,30.17,6.0,ESE,4.6,-,0.00,Rain,Light Rain,110,2012-12-23 14:53:00
7:53 AM,54.0,48.0,80,30.18,10.0,NE,3.5,-,0.00,,Mostly Cloudy,50,2012-12-23 15:53:00
8:37 AM,55.4,48.2,77,30.20,10.0,Calm,Calm,-,N/A,,Mostly Cloudy,0,2012-12-23 16:37:00
8:53 AM,55.9,48.0,75,30.21,10.0,Calm,Calm,-,N/A,,Mostly Cloudy,0,2012-12-23 16:53:00
9:28 AM,57.2,50.0,77,30.22,10.0,WSW,3.5,-,0.00,Rain,Light Rain,250,2012-12-23 17:28:00
9:53 AM,57.9,51.1,78,30.22,10.0,SSW,4.6,-,0.00,Rain,Light Rain,210,2012-12-23 17:53:00
10:41 AM,59.0,51.8,77,30.23,10.0,SW,3.5,-,0.00,,Mostly Cloudy,230,2012-12-23 18:41:00
10:53 AM,59.0,51.1,75,30.23,10.0,SSW,5.8,-,0.00,,Mostly Cloudy,200,2012-12-23 18:53:00
11:53 AM,61.0,50.0,67,30.19,10.0,South,6.9,-,N/A,,Mostly Cloudy,180,2012-12-23 19:53:00
11:59 AM,60.8,50.0,68,30.19,10.0,SSW,4.6,-,N/A,,Mostly Cloudy,200,2012-12-23 19:59:00
12:53 PM,63.0,50.0,63,30.16,10.0,South,6.9,-,N/A,,Mostly Cloudy,190,2012-12-23 20:53:00
1:53 PM,61.0,48.9,64,30.15,10.0,SW,10.4,-,N/A,,Mostly Cloudy,220,2012-12-23 21:53:00
2:53 PM,61.0,51.1,70,30.13,10.0,SSW,10.4,-,N/A,,Mostly Cloudy,210,2012-12-23 22:53:00
3:53 PM,59.0,51.1,75,30.14,10.0,SW,8.1,-,N/A,,Mostly Cloudy,220,2012-12-23 23:53:00
4:53 PM,57.9,52.0,81,30.13,10.0,SSW,5.8,-,N/A,,Mostly Cloudy,210,2012-12-24 00:53:00
5:53 PM,57.0,51.1,81,30.13,10.0,SW,4.6,-,N/A,,Mostly Cloudy,220,2012-12-24 01:53:00
6:53 PM,55.9,51.1,84,30.14,10.0,Calm,Calm,-,N/A,,Scattered Clouds,0,2012-12-24 02:53:00
7:17 PM,55.4,51.8,88,30.15,10.0,South,3.5,-,N/A,,Mostly Cloudy,190,2012-12-24 03:17:00
7:53 PM,55.9,51.1,84,30.15,10.0,Calm,Calm,-,N/A,,Mostly Cloudy,0,2012-12-24 03:53:00
8:53 PM,55.9,51.1,84,30.16,10.0,Calm,Calm,-,N/A,,Overcast,0,2012-12-24 04:53:00
9:53 PM,55.9,51.1,84,30.16,10.0,Calm,Calm,-,N/A,,Overcast,0,2012-12-24 05:53:00
10:53 PM,55.9,51.1,84,30.15,10.0,ESE,4.6,-,N/A,,Overcast,110,2012-12-24 06:53:00
11:40 PM,55.4,51.8,88,30.15,10.0,SSE,5.8,-,N/A,,Overcast,160,2012-12-24 07:40:00
11:50 PM,55.4,51.8,88,30.14,10.0,SSE,4.6,-,N/A,,Overcast,150,2012-12-24 07:50:00
11:53 PM,55.9,51.1,84,30.14,10.0,SSE,3.5,-,N/A,,Overcast,150,2012-12-24 07:53:00